Hovedside
METAR-TAF:

METAR-TAF

Lufthavner :

London-Heathrow, England

London Heathrow lufthavn

breddegrad: 51-29N, lengdegrad: 000-27W, høyde over havet: 24 m

Gjeldene værobservasjon

Denne rapporten ble laget for 35 minutter siden, klokken 18:50 UTC
Vind 12 kt fra Vest
Temperatur 5°C
Luftfuktighet 75%
Trykk 1004 hPa
Sikt 10 km eller mer

METAR: EGLL 181850Z AUTO 27012KT 9999 NCD 05/01 Q1004 NOSIG

Tid: 19:25 (19:25 UTC)

Varsel

Denne rapporten ble laget for 2 timer og 29 minutter siden, klokken 16:56 UTC
Varsel gyldig fra 18. klokken 18 UTC til 19. klokken 24 UTC
Vind 10 kt fra Vest
Sikt 10 km eller mer
Få skyer i en høyde av 4000 ft

TAF: EGLL 181656Z 1818/1924 27010KT 9999 FEW040

Værobservasjoner og værvarsel for over 4000 flyplasser (METAR- og TAF-rapporter).

Tilgjengelige stasjoner er representert av de røde og gule prikkene på kartet.

Hold musepekeren over prikken for å se navnet på stasjonen.

Klikk så for å se værobservasjoner og -varsler.

For å forandre kartet kan du klikke på den grønne knappen med svart kryss for å zoome inn, på den grønne knappen med strek for å zoome ut, eller på de grønne pilene for å se tilstøtende kart.


METAR-TAF: